Arctic Fury — WDE9335 — position and weather

sailwx.info

Track history (hours):
 
Tides and Currents Weather Stations Pressure Air Temp Water Temp Dewpoint Dewpoint Depression Visibility Wind Speed Wind Dir Waves Ship Positions

Arctic Fury

Owner: Fury Group Inc, Seattle, WA. More information available from US FCC via Universal Licensing System and Coast Guard Vessel Documentation Center.

Last reported at 2016-Jul-29 01:33 UTC. Time now 2016-Jul-29 02:06 UTC.
Position N 46°52' W 124°14'.

Length 43 m; draft 5 m.

Type: Fishing. MMSI: 366468000.

Date/timePositionNaut miles runAvg speedWind from/ knotsBaromVisibWave heightAir tempDewpointWater temp
2016-Jul-29 01:33N 46°52' W 124°14'9 8.9
2016-Jul-29 00:33N 46°45' W 124°20'9 8.7
2016-Jul-28 23:33N 46°37' W 124°27'8 7.7
2016-Jul-28 22:33N 46°30' W 124°32'9 8.9
2016-Jul-28 21:33N 46°22' W 124°38'8 7.9
2016-Jul-28 20:33N 46°14' W 124°37'6 6.1
2016-Jul-28 19:33N 46°10' W 124°42'8 7.9
2016-Jul-28 18:33N 46°02' W 124°44'8 8.1
2016-Jul-28 17:33N 45°54' W 124°46'8 8.0
2016-Jul-28 16:33N 45°48' W 124°39'8 8.2
2016-Jul-28 15:33N 45°40' W 124°37'8 8.2
2016-Jul-28 14:33N 45°33' W 124°30'10 8.3
2016-Jul-28 13:19N 45°23' W 124°26'7 8.8
2016-Jul-28 12:33N 45°17' W 124°28'10 8.8
2016-Jul-28 11:24N 45°07' W 124°32'8 8.8
2016-Jul-28 10:29N 44°59' W 124°35'8 8.8
2016-Jul-28 09:33N 44°52' W 124°38'9 8.8
2016-Jul-28 08:33N 44°43' W 124°42'9 8.7
2016-Jul-28 07:33N 44°35' W 124°45'9 8.7
2016-Jul-28 06:29N 44°26' W 124°48'8 8.6
2016-Jul-28 05:33N 44°18' W 124°51'8 8.3
2016-Jul-28 04:33N 44°10' W 124°54'9 8.6
2016-Jul-28 03:33N 44°02' W 124°57'20 8.0
2016-Jul-28 01:06N 43°42' W 124°59'21 8.1
2016-Jul-27 22:31N 43°21' W 124°56'30 5.9
2016-Jul-27 17:23N 42°54' W 125°13'22 0.7
2016-Jul-26 09:12N 42°58' W 124°44'6 9.1
2016-Jul-26 08:31N 42°52' W 124°48'  
Track history (hours):
 
Tides and Currents Weather Stations Pressure Air Temp Water Temp Dewpoint Dewpoint Depression Visibility Wind Speed Wind Dir Waves Ship Positions

Arctic Fury

Owner: Fury Group Inc, Seattle, WA. More information available from US FCC via Universal Licensing System and Coast Guard Vessel Documentation Center.

Last reported at 2016-Jul-29 01:33 UTC. Time now 2016-Jul-29 02:06 UTC.
Position N 46°52' W 124°14'.

Length 43 m; draft 5 m.

Type: Fishing. MMSI: 366468000.

Date/timePositionNaut miles runAvg speedWind from/ knotsBaromVisibWave heightAir tempDewpointWater temp
2016-Jul-29 01:33N 46°52' W 124°14'9 8.9
2016-Jul-29 00:33N 46°45' W 124°20'9 8.7
2016-Jul-28 23:33N 46°37' W 124°27'8 7.7
2016-Jul-28 22:33N 46°30' W 124°32'9 8.9
2016-Jul-28 21:33N 46°22' W 124°38'8 7.9
2016-Jul-28 20:33N 46°14' W 124°37'6 6.1
2016-Jul-28 19:33N 46°10' W 124°42'8 7.9
2016-Jul-28 18:33N 46°02' W 124°44'8 8.1
2016-Jul-28 17:33N 45°54' W 124°46'8 8.0
2016-Jul-28 16:33N 45°48' W 124°39'8 8.2
2016-Jul-28 15:33N 45°40' W 124°37'8 8.2
2016-Jul-28 14:33N 45°33' W 124°30'10 8.3
2016-Jul-28 13:19N 45°23' W 124°26'7 8.8
2016-Jul-28 12:33N 45°17' W 124°28'10 8.8
2016-Jul-28 11:24N 45°07' W 124°32'8 8.8
2016-Jul-28 10:29N 44°59' W 124°35'8 8.8
2016-Jul-28 09:33N 44°52' W 124°38'9 8.8
2016-Jul-28 08:33N 44°43' W 124°42'9 8.7
2016-Jul-28 07:33N 44°35' W 124°45'9 8.7
2016-Jul-28 06:29N 44°26' W 124°48'8 8.6
2016-Jul-28 05:33N 44°18' W 124°51'8 8.3
2016-Jul-28 04:33N 44°10' W 124°54'9 8.6
2016-Jul-28 03:33N 44°02' W 124°57'20 8.0
2016-Jul-28 01:06N 43°42' W 124°59'21 8.1
2016-Jul-27 22:31N 43°21' W 124°56'30 5.9
2016-Jul-27 17:23N 42°54' W 125°13'22 0.7
2016-Jul-26 09:12N 42°58' W 124°44'6 9.1
2016-Jul-26 08:31N 42°52' W 124°48'  

Dump ship's entire track history